KEUG/EUG METAR and TAF weather

Enter ICAO airport designator
Station Type Date Time Source
KEUG METAR 2022/10/01 07:54 UTC NOAA

KEUG 010754Z AUTO 07003KT 3SM BR CLR 11/10 A2998 RMK AO2 SLP150 T01110100 402060106


Station Type Date Time Source
KEUG Decoded METAR 2022/10/01 07:54 UTC NOAA

MAHLON SWEET FIELD, OR, United States (KEUG) 44-08N 123-13W 114M
Oct 01, 2022 - 03:54 AM EDT / 2022.10.01 0754 UTC
Wind: from the ENE (070 degrees) at 3 MPH (3 KT):0
Visibility: 3 mile(s):0
Sky conditions: clear
Weather: mist
Temperature: 52.0 F (11.1 C)
Dew Point: 50.0 F (10.0 C)
Relative Humidity: 92%
Pressure (altimeter): 29.98 in. Hg (1015 hPa)
ob: KEUG 010754Z AUTO 07003KT 3SM BR CLR 11/10 A2998 RMK AO2 SLP150 T01110100 402060106
cycle: 8

Station Type Date Time Source
KEUG TAF 2022/10/01 06:21 UTC NOAA

TAF KEUG 010520Z 0106/0206 36007KT P6SM SKC

Example: see airport list